createdAt,value
2017-11-22T00:01:04.309Z,1011.7
2017-11-22T00:06:05.766Z,1011.8
2017-11-22T00:11:04.816Z,1011.7
2017-11-22T00:16:04.598Z,1011.7
2017-11-22T00:21:04.484Z,1011.6
2017-11-22T00:26:04.315Z,1011.7
2017-11-22T00:31:05.118Z,1011.4
2017-11-22T00:36:05.453Z,1011.5
2017-11-22T00:41:04.862Z,1011.4
2017-11-22T00:46:05.175Z,1011.5
2017-11-22T00:51:05.670Z,1011.5
2017-11-22T00:56:04.823Z,1011.5
2017-11-22T01:01:05.702Z,1011.5
2017-11-22T01:06:04.730Z,1011.5
2017-11-22T01:11:04.915Z,1011.5
2017-11-22T01:16:04.718Z,1011.4
2017-11-22T01:21:04.643Z,1011.4
2017-11-22T01:26:04.490Z,1011.3
2017-11-22T01:31:04.270Z,1011.3
2017-11-22T01:36:05.103Z,1011.3
2017-11-22T01:41:04.270Z,1011.3
2017-11-22T01:46:05.131Z,1011.3
2017-11-22T01:51:04.925Z,1011.3
2017-11-22T01:56:04.831Z,1011.2
2017-11-22T02:01:04.602Z,1011.3
2017-11-22T02:06:04.432Z,1011.3
2017-11-22T02:11:04.644Z,1011.2
2017-11-22T02:16:04.434Z,1011
2017-11-22T02:21:04.435Z,1011
2017-11-22T02:26:04.326Z,1010.9
2017-11-22T02:31:05.132Z,1010.8
2017-11-22T02:36:05.015Z,1010.7
2017-11-22T02:41:04.223Z,1010.8
2017-11-22T02:46:05.015Z,1010.7
2017-11-22T02:51:04.860Z,1010.8
2017-11-22T02:56:04.656Z,1010.9
2017-11-22T03:01:04.454Z,1010.8
2017-11-22T03:06:04.267Z,1010.9
2017-11-22T03:11:04.441Z,1010.7
2017-11-22T03:16:04.286Z,1010.6
2017-11-22T03:21:04.246Z,1010.5
2017-11-22T03:26:05.040Z,1010.3
2017-11-22T03:31:04.921Z,1010.4
2017-11-22T03:36:04.678Z,1010.5
2017-11-22T03:41:04.891Z,1010.6
2017-11-22T03:46:04.700Z,1010.5
2017-11-22T03:51:04.551Z,1010.5
2017-11-22T03:56:04.361Z,1010.3
2017-11-22T04:01:04.208Z,1010.4
2017-11-22T04:06:05.079Z,1010.3
2017-11-22T04:11:04.226Z,1010.2
2017-11-22T04:16:05.144Z,1010.2
2017-11-22T04:21:04.991Z,1010.2
2017-11-22T04:26:04.821Z,1010.2
2017-11-22T04:31:04.606Z,1010.2
2017-11-22T04:36:04.396Z,1010.1
2017-11-22T04:41:04.616Z,1010
2017-11-22T04:46:04.470Z,1010.1
2017-11-22T04:51:04.310Z,1010.2
2017-11-22T04:56:05.145Z,1010.2
2017-11-22T05:01:05.003Z,1010.2
2017-11-22T05:06:04.765Z,1010.1
2017-11-22T05:11:05.029Z,1010.1
2017-11-22T05:16:04.862Z,1010
2017-11-22T05:21:04.791Z,1010
2017-11-22T05:26:04.655Z,1010
2017-11-22T05:31:04.487Z,1010
2017-11-22T05:36:04.276Z,1009.9
2017-11-22T05:41:04.537Z,1009.8
2017-11-22T05:46:04.370Z,1009.9
2017-11-22T05:51:05.207Z,1009.9
2017-11-22T05:56:05.065Z,1009.9
2017-11-22T06:01:04.896Z,1009.9
2017-11-22T06:06:04.692Z,1009.9
2017-11-22T06:11:04.911Z,1010
2017-11-22T06:16:04.744Z,1009.9
2017-11-22T06:21:04.727Z,1010
2017-11-22T06:26:04.487Z,1009.9
2017-11-22T06:31:04.402Z,1009.9
2017-11-22T06:36:05.226Z,1010
2017-11-22T06:41:04.436Z,1010.1
2017-11-22T06:46:04.257Z,1010.2
2017-11-22T06:51:04.505Z,1010.1
2017-11-22T06:56:04.346Z,1010.2
2017-11-22T07:01:04.614Z,1010.3
2017-11-22T07:06:04.417Z,1010.2
2017-11-22T07:11:04.657Z,1010.3
2017-11-22T07:16:04.604Z,1010.3
2017-11-22T07:21:04.420Z,1010.4
2017-11-22T07:26:04.259Z,1010.3
2017-11-22T07:31:05.072Z,1010.4
2017-11-22T07:36:04.924Z,1010.6
2017-11-22T07:41:05.086Z,1010.4
2017-11-22T07:46:04.900Z,1010.5
2017-11-22T07:51:04.793Z,1010.5
2017-11-22T07:56:04.563Z,1010.6
2017-11-22T08:01:04.380Z,1010.7
2017-11-22T08:06:05.207Z,1010.7
2017-11-22T08:11:04.432Z,1010.8
2017-11-22T08:16:04.223Z,1010.8
2017-11-22T08:21:05.228Z,1010.7
2017-11-22T08:26:04.965Z,1010.7
2017-11-22T08:31:04.824Z,1010.8
2017-11-22T08:36:04.693Z,1010.8
2017-11-22T08:41:04.882Z,1010.8
2017-11-22T08:46:04.726Z,1010.8
2017-11-22T08:51:04.536Z,1010.7
2017-11-22T08:56:04.427Z,1010.8
2017-11-22T09:01:04.221Z,1010.8
2017-11-22T09:06:06.184Z,1010.8
2017-11-22T09:11:04.426Z,1010.8
2017-11-22T09:16:05.188Z,1010.8
2017-11-22T09:21:05.137Z,1010.8
2017-11-22T09:26:04.918Z,1010.8
2017-11-22T09:31:04.724Z,1010.8
2017-11-22T09:36:04.766Z,1010.9
2017-11-22T09:41:05.045Z,1010.8
2017-11-22T09:46:04.836Z,1010.8
2017-11-22T09:51:04.701Z,1010.9
2017-11-22T09:56:04.518Z,1010.9
2017-11-22T10:01:04.331Z,1010.9
2017-11-22T10:06:05.191Z,1010.8
2017-11-22T10:11:04.352Z,1010.8
2017-11-22T10:16:04.263Z,1010.7
2017-11-22T10:21:05.216Z,1010.8
2017-11-22T10:26:05.003Z,1010.8
2017-11-22T10:31:04.804Z,1010.7
2017-11-22T10:36:04.580Z,1010.6
2017-11-22T10:41:04.816Z,1010.7
2017-11-22T10:46:04.587Z,1010.6
2017-11-22T10:51:04.547Z,1010.6
2017-11-22T10:56:04.395Z,1010.6
2017-11-22T11:01:04.197Z,1010.6
2017-11-22T11:06:05.037Z,1010.5
2017-11-22T11:11:04.287Z,1010.5
2017-11-22T11:16:05.154Z,1010.4
2017-11-22T11:21:05.098Z,1010.3
2017-11-22T11:26:04.936Z,1010.3
2017-11-22T11:31:04.778Z,1010.4
2017-11-22T11:36:04.617Z,1010.2
2017-11-22T11:41:04.850Z,1010.2
2017-11-22T11:46:04.646Z,1010.2
2017-11-22T11:51:04.486Z,1010.1
2017-11-22T11:56:04.390Z,1010.1
2017-11-22T12:01:05.204Z,1010
2017-11-22T12:06:05.010Z,1010
2017-11-22T12:11:04.300Z,1009.9
2017-11-22T12:16:05.134Z,1009.8
2017-11-22T12:21:05.106Z,1009.7
2017-11-22T12:26:04.968Z,1009.7
2017-11-22T12:31:04.883Z,1009.6
2017-11-22T12:36:04.728Z,1009.6
2017-11-22T12:41:05.400Z,1009.6
2017-11-22T12:46:04.594Z,1009.5
2017-11-22T12:51:04.421Z,1009.4
2017-11-22T12:56:04.557Z,1009.4
2017-11-22T13:01:05.032Z,1009.5
2017-11-22T13:06:04.874Z,1009.4
2017-11-22T13:11:05.161Z,1009.3
2017-11-22T13:16:04.970Z,1009.3
2017-11-22T13:21:04.885Z,1009.2
2017-11-22T13:26:04.658Z,1009.2
2017-11-22T13:31:04.501Z,1009.2
2017-11-22T13:36:04.268Z,1009.2
2017-11-22T13:41:04.500Z,1009.1
2017-11-22T13:46:04.317Z,1009.1
2017-11-22T13:51:06.072Z,1009
2017-11-22T13:56:04.981Z,1009.2
2017-11-22T14:01:04.785Z,1009.1
2017-11-22T14:06:04.591Z,1009.1
2017-11-22T14:11:04.814Z,1009.1
2017-11-22T14:16:04.651Z,1009
2017-11-22T14:21:04.576Z,1009
2017-11-22T14:26:04.453Z,1008.8
2017-11-22T14:31:04.291Z,1008.8
2017-11-22T14:36:05.075Z,1008.8
2017-11-22T14:41:04.281Z,1008.7
2017-11-22T14:46:05.163Z,1008.7
2017-11-22T14:51:04.920Z,1008.7
2017-11-22T14:56:04.862Z,1008.7
2017-11-22T15:01:05.044Z,1008.6
2017-11-22T15:06:04.650Z,1008.6
2017-11-22T15:11:04.930Z,1008.6
2017-11-22T15:16:04.782Z,1008.6
2017-11-22T15:21:04.727Z,1008.6
2017-11-22T15:26:04.552Z,1008.5
2017-11-22T15:31:04.358Z,1008.4
2017-11-22T15:36:04.173Z,1008.5
2017-11-22T15:41:04.694Z,1008.5
2017-11-22T15:46:04.533Z,1008.5
2017-11-22T15:51:04.962Z,1008.4
2017-11-22T15:56:04.265Z,1008.4
2017-11-22T16:01:05.562Z,1008.2
2017-11-22T16:06:04.957Z,1008.2
2017-11-22T16:11:05.169Z,1008.2
2017-11-22T16:16:05.654Z,1008.3
2017-11-22T16:21:04.962Z,1008.2
2017-11-22T16:26:04.924Z,1008.2
2017-11-22T16:31:05.079Z,1008.2
2017-11-22T16:36:04.496Z,1008.1
2017-11-22T16:41:04.750Z,1008
2017-11-22T16:46:04.578Z,1007.9
2017-11-22T16:51:04.511Z,1007.8
2017-11-22T16:56:04.389Z,1007.7
2017-11-22T17:01:04.224Z,1007.6
2017-11-22T17:06:05.002Z,1007.6
2017-11-22T17:11:04.320Z,1007.6
2017-11-22T17:16:05.054Z,1007.6
2017-11-22T17:21:04.998Z,1007.5
2017-11-22T17:26:04.833Z,1007.6
2017-11-22T17:31:04.750Z,1007.5
2017-11-22T17:36:05.428Z,1007.5
2017-11-22T17:41:05.199Z,1007.3
2017-11-22T17:46:05.060Z,1007.4
2017-11-22T17:51:04.960Z,1007.3
2017-11-22T17:56:04.942Z,1007.2
2017-11-22T18:01:05.082Z,1007.2
2017-11-22T18:06:05.187Z,1007.2
2017-11-22T18:11:04.497Z,1007.3
2017-11-22T18:16:04.282Z,1007.4
2017-11-22T18:21:04.174Z,1007.3
2017-11-22T18:26:05.104Z,1007.4
2017-11-22T18:31:04.868Z,1007.4
2017-11-22T18:36:04.719Z,1007.3
2017-11-22T18:41:04.993Z,1007.4
2017-11-22T18:46:05.020Z,1007.2
2017-11-22T18:51:06.366Z,1007.3
2017-11-22T18:56:04.844Z,1007.1
2017-11-22T19:01:04.700Z,1007.1
2017-11-22T19:06:04.636Z,1007
2017-11-22T19:11:04.815Z,1007.1
2017-11-22T19:16:04.672Z,1007
2017-11-22T19:21:04.593Z,1007
2017-11-22T19:26:04.538Z,1006.9
2017-11-22T19:31:06.411Z,1006.9
2017-11-22T19:36:07.252Z,1006.9
2017-11-22T19:41:04.972Z,1006.9
2017-11-22T19:46:05.044Z,1006.9
2017-11-22T19:51:04.600Z,1006.7
2017-11-22T19:56:04.431Z,1006.6
